Time;durP1;ratioP1;P1;durP2;ratioP2;P2;SDS_P1;SDS_P2;PMS_P1;PMS_P2;Temp;Humidity;BMP_temperature;BMP_pressure;BME280_temperature;BME280_humidity;BME280_pressure;Samples;Min_cycle;Max_cycle;Signal;HPM_P1;HPM_P2
2022/01/31 00:01:28;;;;;;;29.15;8.43;;;0.70;99.90;;;;;;4960584;28;20203;-87
2022/01/31 00:03:54;;;;;;;16.37;7.17;;;;;;;;;;4960447;28;20635;-88
2022/01/31 00:06:19;;;;;;;24.10;5.30;;;0.80;99.90;;;;;;4961134;28;20199;-88
2022/01/31 00:08:45;;;;;;;13.50;6.10;;;1.10;99.90;;;;;;5039498;28;20440;-88
2022/01/31 00:11:11;;;;;;;26.03;7.93;;;;;;;;;;4961913;28;20549;-88
2022/01/31 00:13:41;;;;;;;18.50;10.00;;;1.20;99.90;;;;;;4965332;28;20223;-88
2022/01/31 00:16:10;;;;;;;12.52;6.10;;;1.30;99.90;;;;;;4983398;28;20196;-88
2022/01/31 00:18:35;;;;;;;12.95;4.90;;;1.50;99.90;;;;;;4963849;28;20223;-88
2022/01/31 00:21:01;;;;;;;17.20;6.23;;;;;;;;;;4967803;28;20577;-88
2022/01/31 00:23:27;;;;;;;12.47;4.00;;;;;;;;;;4958237;28;20191;-88
2022/01/31 00:25:53;;;;;;;21.13;4.13;;;;;;;;;;4964877;28;20513;-88
2022/01/31 00:28:19;;;;;;;9.87;4.00;;;;;;;;;;4966638;28;20419;-89
2022/01/31 00:30:46;;;;;;;11.43;2.70;;;2.10;99.90;;;;;;4975292;28;20467;-88
2022/01/31 00:33:15;;;;;;;13.88;3.00;;;2.30;99.90;;;;;;4962784;28;20503;-88
2022/01/31 00:35:40;;;;;;;25.65;7.13;;;3.20;99.90;;;;;;4961909;28;20445;-87
2022/01/31 00:38:06;;;;;;;16.63;5.60;;;;;;;;;;4991991;28;20184;-89
2022/01/31 00:40:34;;;;;;;13.40;4.53;;;;;;;;;;4964120;28;20460;-88
2022/01/31 00:43:00;;;;;;;15.85;4.78;;;2.60;99.90;;;;;;4983180;28;20432;-88
2022/01/31 00:45:28;;;;;;;10.53;3.70;;;;;;;;;;4971343;28;20218;-87
2022/01/31 00:48:02;;;;;;;16.58;3.80;;;2.60;99.90;;;;;;4957203;28;20206;-88
2022/01/31 00:50:30;;;;;;;10.75;3.25;;;2.60;99.90;;;;;;4960587;28;20199;-88
2022/01/31 00:52:55;;;;;;;20.60;4.90;;;2.70;99.90;;;;;;4969637;28;20337;-88
2022/01/31 00:55:21;;;;;;;9.73;3.27;;;;;;;;;;4960864;28;20239;-88
2022/01/31 00:57:47;;;;;;;12.83;3.30;;;;;;;;;;4960459;28;22539;-88
2022/01/31 01:00:15;;;;;;;8.63;2.73;;;3.00;99.90;;;;;;4959417;28;20462;-88
2022/01/31 01:02:41;;;;;;;8.57;2.92;;;3.00;99.90;;;;;;4959029;28;20986;-88
2022/01/31 01:05:07;;;;;;;8.95;2.85;;;3.00;99.90;;;;;;4962310;28;20314;-89
2022/01/31 01:07:33;;;;;;;7.35;2.55;;;3.10;99.90;;;;;;4962438;28;20669;-88
2022/01/31 01:09:59;;;;;;;4.70;2.90;;;;;;;;;;4961389;28;20203;-88
2022/01/31 01:12:25;;;;;;;6.33;2.77;;;;;;;;;;4954263;28;20200;-89
2022/01/31 01:14:52;;;;;;;9.70;3.13;;;;;;;;;;4956198;28;20506;-88
2022/01/31 01:17:18;;;;;;;8.75;3.00;;;3.20;99.90;;;;;;4974628;28;20439;-88
2022/01/31 01:19:43;;;;;;;16.30;3.97;;;3.20;99.90;;;;;;4960185;28;20196;-88
2022/01/31 01:22:10;;;;;;;8.30;2.83;;;;;;;;;;4960496;28;20304;-88
2022/01/31 01:24:36;;;;;;;10.32;2.55;;;3.20;99.90;;;;;;4958203;28;20631;-88
2022/01/31 01:27:02;;;;;;;8.67;3.03;;;;;;;;;;4962397;28;20314;-88
2022/01/31 01:29:27;;;;;;;16.85;2.63;;;3.20;99.90;;;;;;4972725;28;20470;-88
2022/01/31 01:31:53;;;;;;;16.50;4.10;;;3.20;99.90;;;;;;4958939;28;20260;-90
2022/01/31 01:34:21;;;;;;;15.03;2.83;;;;;;;;;;4959303;28;20230;-90
2022/01/31 01:36:50;;;;;;;6.80;2.38;;;3.10;99.90;;;;;;4955850;28;20863;-89
2022/01/31 01:39:15;;;;;;;21.65;2.85;;;3.00;99.90;;;;;;4965502;28;20314;-89
2022/01/31 01:41:43;;;;;;;10.47;3.17;;;3.00;99.90;;;;;;4967035;28;20176;-88
2022/01/31 01:44:08;;;;;;;6.38;3.38;;;3.40;99.90;;;;;;4971631;28;20196;-89
2022/01/31 01:46:34;;;;;;;11.37;3.00;;;;;;;;;;4962368;28;20196;-88
2022/01/31 01:49:00;;;;;;;6.00;1.90;;;;;;;;;;4958613;28;20219;-88
2022/01/31 01:51:26;;;;;;;6.25;1.98;;;2.70;99.90;;;;;;4959643;28;20601;-88
2022/01/31 01:53:52;;;;;;;8.30;2.90;;;2.60;99.90;;;;;;4967707;28;20215;-87
2022/01/31 01:56:18;;;;;;;15.60;3.93;;;;;;;;;;4958474;28;20188;-89
2022/01/31 01:58:44;;;;;;;5.15;2.60;;;2.30;99.90;;;;;;4958057;28;20211;-89
2022/01/31 02:01:11;;;;;;;5.57;2.85;;;2.30;99.90;;;;;;4965912;28;20253;-89
2022/01/31 02:03:39;;;;;;;6.72;3.30;;;5.00;99.90;;;;;;4964044;28;20299;-88
2022/01/31 02:06:07;;;;;;;6.38;3.60;;;2.20;99.90;;;;;;4969265;28;20215;-89
2022/01/31 02:08:40;;;;;;;6.28;1.75;;;2.20;99.90;;;;;;4969028;28;20652;-89
2022/01/31 02:11:10;;;;;;;3.67;2.42;;;2.20;99.90;;;;;;4965876;28;20191;-89
2022/01/31 02:13:37;;;;;;;11.48;3.33;;;4.60;99.90;;;;;;4964341;28;20211;-89
2022/01/31 02:16:04;;;;;;;7.32;3.13;;;2.00;99.90;;;;;;4968099;28;20191;-90
2022/01/31 02:18:35;;;;;;;9.75;3.55;;;2.00;99.90;;;;;;4969249;28;20179;-91
2022/01/31 02:21:02;;;;;;;10.63;3.63;;;2.10;99.90;;;;;;4969258;28;20196;-88
2022/01/31 02:23:28;;;;;;;6.55;2.65;;;;;;;;;;4967413;28;20203;-90
2022/01/31 02:25:57;;;;;;;13.00;3.50;;;2.20;99.90;;;;;;4961643;28;20187;-90
2022/01/31 02:28:24;;;;;;;16.48;4.13;;;2.30;99.90;;;;;;4970194;28;20191;-89
2022/01/31 02:30:50;;;;;;;12.13;3.45;;;2.30;99.90;;;;;;4956706;28;20208;-89
2022/01/31 02:33:18;;;;;;;11.30;3.70;;;;;;;;;;4958990;28;20268;-89
2022/01/31 02:35:44;;;;;;;10.40;2.45;;;;;;;;;;4956598;28;20197;-89
2022/01/31 02:38:10;;;;;;;14.53;3.90;;;;;;;;;;4967924;28;20514;-88
2022/01/31 02:40:36;;;;;;;18.10;3.50;;;;;;;;;;4959982;28;20448;-88
2022/01/31 02:43:02;;;;;;;6.43;3.17;;;;;;;;;;4958709;28;20884;-88
2022/01/31 02:45:30;;;;;;;10.70;3.22;;;;;;;;;;4962409;28;20800;-89
2022/01/31 02:47:58;;;;;;;7.95;2.95;;;2.40;99.90;;;;;;4959612;28;20239;-89
2022/01/31 02:50:24;;;;;;;11.60;3.00;;;2.90;99.90;;;;;;4968674;28;20208;-89
2022/01/31 02:52:59;;;;;;;7.55;3.33;;;2.40;99.90;;;;;;4958287;28;20184;-89
2022/01/31 02:55:26;;;;;;;18.55;4.43;;;2.60;99.90;;;;;;4959850;28;20628;-89
2022/01/31 02:57:51;;;;;;;22.63;4.32;;;;;;;;;;4962237;28;20227;-90
2022/01/31 03:00:17;;;;;;;16.90;5.00;;;;;;;;;;4970805;28;20203;-89
2022/01/31 03:02:43;;;;;;;12.85;3.38;;;2.50;99.90;;;;;;4959216;28;20443;-90
2022/01/31 03:05:08;;;;;;;6.43;2.30;;;2.50;99.90;;;;;;4969548;28;20523;-89
2022/01/31 03:07:34;;;;;;;10.70;3.03;;;2.50;99.90;;;;;;4966030;28;20552;-90
2022/01/31 03:10:01;;;;;;;10.03;3.07;;;2.50;99.90;;;;;;4962806;28;20215;-89
2022/01/31 03:12:29;;;;;;;14.80;3.97;;;2.50;99.90;;;;;;4974243;28;20189;-88
2022/01/31 03:14:54;;;;;;;15.13;3.67;;;2.50;99.90;;;;;;4966095;28;20204;-88
2022/01/31 03:17:20;;;;;;;19.50;5.83;;;2.60;99.90;;;;;;4988956;22;20176;-81
2022/01/31 03:19:52;;;;;;;12.33;4.13;;;2.60;99.90;;;;;;5064771;28;20867;-81
2022/01/31 03:22:19;;;;;;;7.72;2.88;;;2.60;99.90;;;;;;5049802;28;20187;-81
2022/01/31 03:24:45;;;;;;;9.20;4.38;;;2.60;99.90;;;;;;5072564;28;20172;-80
2022/01/31 03:27:10;;;;;;;9.30;2.50;;;2.70;99.90;;;;;;5074824;28;20236;-83
2022/01/31 03:29:36;;;;;;;13.37;3.90;;;2.70;99.90;;;;;;5049315;28;20196;-82
2022/01/31 03:32:02;;;;;;;8.73;3.30;;;2.80;99.90;;;;;;5051078;28;20185;-79
2022/01/31 03:34:27;;;;;;;13.23;4.40;;;2.80;99.90;;;;;;5032318;28;20222;-81
2022/01/31 03:36:53;;;;;;;11.03;2.83;;;2.80;99.90;;;;;;5055312;28;20443;-79
2022/01/31 03:39:19;;;;;;;12.33;3.47;;;;;;;;;;5036601;28;20328;-80
2022/01/31 03:41:44;;;;;;;7.67;3.60;;;2.90;99.90;;;;;;5031619;28;20193;-81
2022/01/31 03:44:10;;;;;;;12.13;2.57;;;3.00;99.90;;;;;;5052378;28;20518;-82
2022/01/31 03:46:38;;;;;;;10.13;3.53;;;;;;;;;;5055698;28;20186;-80
2022/01/31 03:49:04;;;;;;;12.48;2.97;;;3.20;99.90;;;;;;5057203;28;20251;-79
2022/01/31 03:51:29;;;;;;;15.80;3.90;;;3.30;99.90;;;;;;5069009;28;20185;-83
2022/01/31 03:53:55;;;;;;;10.43;3.90;;;;;;;;;;5051273;28;20272;-79
2022/01/31 03:56:21;;;;;;;5.70;2.77;;;;;;;;;;5055858;28;20197;-84
2022/01/31 03:58:47;;;;;;;10.40;2.53;;;;;;;;;;5035284;28;20446;-82
2022/01/31 04:01:13;;;;;;;6.93;2.37;;;;;;;;;;5048606;28;20444;-82
2022/01/31 04:03:39;;;;;;;4.20;1.87;;;3.70;99.90;;;;;;5030076;28;20435;-84
2022/01/31 04:06:05;;;;;;;10.10;2.43;;;;;;;;;;5045147;28;20453;-83
2022/01/31 04:08:30;;;;;;;8.45;2.97;;;3.80;99.90;;;;;;5046848;28;20235;-83
2022/01/31 04:10:57;;;;;;;13.33;3.70;;;3.80;99.90;;;;;;5040236;28;20184;-82
2022/01/31 04:13:23;;;;;;;4.93;1.98;;;3.80;99.90;;;;;;5034473;28;20308;-80
2022/01/31 04:15:49;;;;;;;12.43;2.93;;;;;;;;;;5038193;28;20208;-82
2022/01/31 04:18:15;;;;;;;8.40;2.45;;;3.90;99.90;;;;;;5053517;28;20334;-81
2022/01/31 04:20:41;;;;;;;11.97;3.50;;;;;;;;;;5068929;28;20169;-81
2022/01/31 04:23:12;;;;;;;11.48;2.97;;;4.00;99.90;;;;;;5055110;28;20439;-82
2022/01/31 04:25:44;;;;;;;7.03;2.40;;;4.00;99.90;;;;;;5068811;28;20183;-82
2022/01/31 04:28:18;;;;;;;11.95;2.80;;;4.10;99.90;;;;;;5041443;28;20205;-84
2022/01/31 04:30:57;;;;;;;4.15;1.48;;;4.10;99.90;;;;;;5050762;28;20171;-83
2022/01/31 04:33:24;;;;;;;10.32;2.90;;;4.10;99.90;;;;;;5033488;28;20192;-81
2022/01/31 04:35:50;;;;;;;7.55;2.85;;;4.70;99.90;;;;;;5035695;28;20641;-83
2022/01/31 04:38:17;;;;;;;13.45;2.85;;;4.10;99.90;;;;;;5049291;28;20196;-81
2022/01/31 04:40:43;;;;;;;11.85;2.80;;;4.10;99.90;;;;;;5070068;28;20420;-82
2022/01/31 04:43:09;;;;;;;12.93;2.87;;;;;;;;;;5051372;28;20188;-83
2022/01/31 04:45:35;;;;;;;8.18;2.92;;;4.20;99.90;;;;;;5053479;28;20553;-85
2022/01/31 04:48:01;;;;;;;6.60;2.73;;;;;;;;;;5051645;28;20193;-81
2022/01/31 04:50:26;;;;;;;9.00;2.80;;;4.40;99.90;;;;;;5033325;28;20243;-85
2022/01/31 04:52:52;;;;;;;3.03;1.67;;;4.30;99.90;;;;;;5051680;28;20565;-82
2022/01/31 04:55:18;;;;;;;9.63;3.57;;;;;;;;;;5069179;28;20215;-80
2022/01/31 04:57:44;;;;;;;6.37;2.13;;;;;;;;;;5038743;28;20299;-81
2022/01/31 05:00:10;;;;;;;8.73;2.40;;;4.40;99.90;;;;;;5051747;28;20461;-81
2022/01/31 05:02:36;;;;;;;17.05;3.00;;;;;;;;;;5026846;28;20181;-85
2022/01/31 05:05:05;;;;;;;8.32;2.53;;;4.40;99.90;;;;;;5048163;28;20330;-84
2022/01/31 05:07:32;;;;;;;11.10;2.90;;;4.40;99.90;;;;;;5039382;28;20296;-83
2022/01/31 05:09:58;;;;;;;10.98;3.00;;;4.30;99.90;;;;;;5054297;28;20180;-81
2022/01/31 05:12:25;;;;;;;12.17;3.20;;;4.30;99.90;;;;;;5043755;28;20189;-81
2022/01/31 05:14:51;;;;;;;11.35;2.38;;;4.30;99.90;;;;;;5048358;28;20204;-82
2022/01/31 05:17:16;;;;;;;8.43;2.77;;;4.40;99.90;;;;;;5029390;28;20185;-81
2022/01/31 05:19:42;;;;;;;7.80;2.20;;;;;;;;;;5048368;28;20185;-82
2022/01/31 05:22:07;;;;;;;6.50;3.17;;;4.40;99.90;;;;;;5051937;28;20591;-83
2022/01/31 05:24:33;;;;;;;7.83;2.60;;;;;;;;;;5029908;28;20574;-80
2022/01/31 05:27:00;;;;;;;9.33;2.90;;;4.50;99.90;;;;;;5038820;28;20914;-83
2022/01/31 05:29:26;;;;;;;11.93;3.45;;;4.50;99.90;;;;;;5048994;28;20528;-84
2022/01/31 05:31:53;;;;;;;11.83;3.43;;;4.50;99.90;;;;;;5048970;28;20189;-81
2022/01/31 05:34:19;;;;;;;6.05;2.03;;;6.40;99.90;;;;;;5041775;28;21873;-85
2022/01/31 05:36:45;;;;;;;15.75;2.85;;;4.60;99.90;;;;;;5044737;28;20184;-82
2022/01/31 05:39:11;;;;;;;10.68;3.17;;;4.60;99.90;;;;;;5028544;28;20609;-83
2022/01/31 05:41:37;;;;;;;4.90;3.40;;;4.70;99.90;;;;;;5055410;28;20184;-83
2022/01/31 05:44:03;;;;;;;13.77;3.20;;;6.10;99.90;;;;;;5048208;28;21153;-83
2022/01/31 05:46:28;;;;;;;8.17;2.10;;;4.70;99.90;;;;;;5059831;28;20177;-79
2022/01/31 05:48:54;;;;;;;8.50;2.10;;;;;;;;;;5075449;28;20466;-79
2022/01/31 05:51:22;;;;;;;13.90;2.43;;;4.70;99.90;;;;;;5047947;28;20251;-81
2022/01/31 05:53:49;;;;;;;9.90;2.83;;;4.70;99.90;;;;;;5045118;28;20447;-83
2022/01/31 05:56:16;;;;;;;16.15;3.08;;;4.70;99.90;;;;;;5022083;28;20895;-87
2022/01/31 05:58:43;;;;;;;4.80;2.63;;;4.60;99.90;;;;;;5042245;28;20201;-84
2022/01/31 06:01:09;;;;;;;6.00;3.38;;;4.70;99.90;;;;;;5044182;28;20189;-84
2022/01/31 06:03:37;;;;;;;9.60;2.60;;;4.70;99.90;;;;;;5033227;28;20185;-80
2022/01/31 06:06:03;;;;;;;13.05;3.40;;;4.70;99.90;;;;;;5047222;28;20177;-82
2022/01/31 06:08:30;;;;;;;11.53;2.70;;;4.60;99.90;;;;;;5046749;28;20205;-82
2022/01/31 06:10:55;;;;;;;12.90;2.13;;;4.60;99.90;;;;;;5031608;28;20843;-82
2022/01/31 06:13:24;;;;;;;9.90;3.10;;;4.60;99.90;;;;;;5041344;28;20204;-82
2022/01/31 06:15:50;;;;;;;6.53;2.72;;;4.60;99.90;;;;;;5044482;28;20188;-81
2022/01/31 06:18:16;;;;;;;9.43;2.63;;;5.60;99.90;;;;;;5045888;28;20213;-83
2022/01/31 06:20:42;;;;;;;10.03;3.57;;;;;;;;;;5031546;28;20200;-83
2022/01/31 06:23:07;;;;;;;18.25;2.63;;;4.50;99.90;;;;;;5051075;28;20169;-81
2022/01/31 06:25:34;;;;;;;15.73;2.87;;;4.40;99.90;;;;;;5030164;28;20211;-81
2022/01/31 06:28:00;;;;;;;11.23;5.05;;;4.40;99.90;;;;;;5017808;28;20205;-85
2022/01/31 06:30:26;;;;;;;5.27;2.70;;;;;;;;;;5033372;28;20534;-85
2022/01/31 06:32:53;;;;;;;15.80;3.77;;;4.20;99.90;;;;;;5047412;28;20185;-83
2022/01/31 06:35:20;;;;;;;6.38;2.17;;;4.10;99.90;;;;;;5032943;28;20461;-84
2022/01/31 06:37:46;;;;;;;13.88;3.97;;;4.00;99.90;;;;;;5051749;28;20201;-84
2022/01/31 06:40:12;;;;;;;7.00;2.80;;;4.00;99.90;;;;;;5032652;28;20192;-80
2022/01/31 06:42:37;;;;;;;8.00;2.60;;;4.00;99.90;;;;;;5038947;28;20259;-83
2022/01/31 06:45:04;;;;;;;9.70;2.87;;;3.80;99.90;;;;;;5042050;28;20253;-82
2022/01/31 06:47:30;;;;;;;8.35;3.40;;;3.80;99.90;;;;;;5059181;28;20205;-82
2022/01/31 06:49:57;;;;;;;7.30;2.60;;;3.70;99.90;;;;;;5058128;28;20188;-82
2022/01/31 06:52:23;;;;;;;6.10;2.08;;;3.70;99.90;;;;;;5052892;28;20189;-82
2022/01/31 06:54:51;;;;;;;14.20;3.92;;;3.60;99.90;;;;;;5020598;28;21002;-86
2022/01/31 06:57:23;;;;;;;6.72;4.13;;;3.60;99.90;;;;;;5051628;28;20181;-82
2022/01/31 06:59:50;;;;;;;7.15;2.58;;;3.60;99.90;;;;;;5051085;28;20728;-82
2022/01/31 07:02:15;;;;;;;19.40;3.28;;;3.70;99.90;;;;;;5058652;28;20181;-83
2022/01/31 07:04:41;;;;;;;11.10;3.83;;;3.70;99.90;;;;;;5038611;28;20183;-81
2022/01/31 07:07:06;;;;;;;12.90;3.27;;;3.70;99.90;;;;;;5050445;28;20181;-82
2022/01/31 07:09:35;;;;;;;4.17;2.80;;;3.70;99.90;;;;;;5054606;28;20212;-85
2022/01/31 07:12:03;;;;;;;6.25;2.58;;;3.80;99.90;;;;;;5050296;28;20181;-82
2022/01/31 07:14:31;;;;;;;5.38;2.60;;;3.80;99.90;;;;;;5067111;28;20203;-81
2022/01/31 07:17:00;;;;;;;9.27;3.45;;;3.70;99.90;;;;;;5049676;28;20196;-86
2022/01/31 07:19:27;;;;;;;9.90;3.15;;;3.70;99.90;;;;;;5059072;28;20473;-85
2022/01/31 07:21:53;;;;;;;6.32;3.08;;;3.70;99.90;;;;;;5038927;28;20184;-82
2022/01/31 07:27:00;;;;;;;7.90;2.53;;;3.60;99.90;;;;;;5056993;28;20660;-86
2022/01/31 07:29:29;;;;;;;4.33;2.67;;;3.60;99.90;;;;;;5033353;28;20188;-81
2022/01/31 07:31:56;;;;;;;12.63;2.80;;;3.60;99.90;;;;;;5047150;28;20540;-86
2022/01/31 07:34:22;;;;;;;3.60;2.33;;;3.60;99.90;;;;;;5054429;28;20205;-85
2022/01/31 07:36:48;;;;;;;4.30;2.35;;;3.60;99.90;;;;;;5057065;28;20811;-84
2022/01/31 07:39:15;;;;;;;3.33;2.75;;;3.40;99.90;;;;;;5051817;28;20228;-84
2022/01/31 07:41:41;;;;;;;4.85;2.90;;;;;;;;;;5031330;28;20173;-80
2022/01/31 07:44:08;;;;;;;17.52;7.78;;;3.60;99.90;;;;;;5058695;28;20177;-83
2022/01/31 07:46:33;;;;;;;6.00;3.50;;;3.50;99.90;;;;;;5068927;28;20185;-80
2022/01/31 07:48:59;;;;;;;16.87;6.27;;;;;;;;;;5055637;28;20731;-82
2022/01/31 07:51:25;;;;;;;43.50;18.13;;;3.60;99.90;;;;;;5057468;28;20729;-81
2022/01/31 07:53:51;;;;;;;1.90;1.67;;;3.60;99.90;;;;;;5057595;28;20467;-80
2022/01/31 07:56:17;;;;;;;4.30;2.20;;;;;;;;;;5057550;28;20184;-83
2022/01/31 07:58:44;;;;;;;5.95;2.75;;;3.60;99.90;;;;;;5035808;28;20853;-82
2022/01/31 08:01:10;;;;;;;3.15;2.15;;;;;;;;;;5049624;28;20205;-82
2022/01/31 08:03:36;;;;;;;5.72;2.40;;;3.80;99.90;;;;;;5049635;28;20208;-81
2022/01/31 08:06:03;;;;;;;4.95;2.20;;;3.80;99.90;;;;;;5050768;28;20216;-84
2022/01/31 08:08:30;;;;;;;3.63;3.33;;;;;;;;;;5048911;28;20274;-84
2022/01/31 08:11:00;;;;;;;5.25;2.13;;;3.80;99.90;;;;;;5047221;28;20196;-84
2022/01/31 08:13:26;;;;;;;2.03;1.85;;;3.80;99.90;;;;;;5045729;28;20228;-81
2022/01/31 08:16:09;;;;;;;2.75;1.80;;;3.70;99.90;;;;;;5029738;28;20185;-80
2022/01/31 08:18:40;;;;;;;2.42;1.75;;;5.90;99.90;;;;;;5032319;28;20209;-82
2022/01/31 08:21:11;;;;;;;4.38;2.00;;;3.70;99.90;;;;;;5047740;28;21056;-79
2022/01/31 08:23:36;;;;;;;1.67;1.58;;;4.10;99.90;;;;;;5039908;28;20181;-82
2022/01/31 08:26:05;;;;;;;3.67;1.67;;;3.90;99.90;;;;;;5048843;28;20193;-82
2022/01/31 08:28:36;;;;;;;2.38;1.60;;;3.90;99.90;;;;;;5046459;28;20229;-86
2022/01/31 08:31:11;;;;;;;2.58;1.90;;;3.90;99.90;;;;;;5036916;28;20676;-82
2022/01/31 08:33:46;;;;;;;3.78;2.13;;;3.90;99.90;;;;;;5051686;28;20300;-85
2022/01/31 08:36:12;;;;;;;1.55;1.45;;;3.90;99.90;;;;;;5046739;28;20173;-83
2022/01/31 08:38:41;;;;;;;9.37;2.13;;;4.00;99.90;;;;;;5048708;28;20209;-80
2022/01/31 08:41:08;;;;;;;3.10;2.25;;;3.90;99.90;;;;;;5065585;28;20493;-83
2022/01/31 08:43:34;;;;;;;5.18;2.10;;;3.90;99.90;;;;;;5064936;28;20234;-84
2022/01/31 08:46:00;;;;;;;3.10;1.83;;;4.10;99.90;;;;;;5051142;28;20185;-80
2022/01/31 08:48:27;;;;;;;2.20;1.65;;;4.00;99.90;;;;;;5051324;28;20230;-85
2022/01/31 08:50:54;;;;;;;9.10;2.05;;;4.10;99.90;;;;;;5053107;28;20185;-82
2022/01/31 08:53:20;;;;;;;2.80;1.52;;;4.50;99.90;;;;;;5050798;28;20181;-82
2022/01/31 08:55:50;;;;;;;5.55;2.63;;;4.60;99.90;;;;;;5051291;28;20177;-83
2022/01/31 08:58:17;;;;;;;5.07;2.35;;;4.70;99.90;;;;;;5041055;28;20201;-82
2022/01/31 09:00:47;;;;;;;1.92;1.73;;;4.60;99.90;;;;;;5028573;28;20349;-85
2022/01/31 09:05:39;;;;;;;4.63;1.93;;;4.60;99.90;;;;;;5043660;28;20180;-84
2022/01/31 09:08:06;;;;;;;13.82;7.85;;;4.60;99.90;;;;;;5041960;28;20829;-84
2022/01/31 09:10:32;;;;;;;2.40;2.17;;;4.70;99.90;;;;;;5046385;28;20200;-79
2022/01/31 09:12:57;;;;;;;3.58;1.48;;;4.80;99.90;;;;;;5037075;28;20201;-85
2022/01/31 09:15:23;;;;;;;5.97;3.50;;;;;;;;;;5027491;28;20738;-80
2022/01/31 09:17:49;;;;;;;3.43;2.50;;;;;;;;;;5053673;28;20208;-80
2022/01/31 09:20:18;;;;;;;1.65;1.52;;;5.00;99.90;;;;;;5070691;28;20437;-81
2022/01/31 09:22:43;;;;;;;1.63;1.48;;;5.00;99.90;;;;;;5063861;28;20181;-86
2022/01/31 09:25:14;;;;;;;2.83;1.47;;;5.00;99.90;;;;;;5032141;28;20242;-83
2022/01/31 09:27:40;;;;;;;2.80;1.33;;;5.10;99.90;;;;;;5030123;28;20215;-85
2022/01/31 09:30:09;;;;;;;1.33;0.90;;;5.00;99.90;;;;;;5030556;28;20368;-83
2022/01/31 09:32:35;;;;;;;3.58;1.40;;;4.90;99.90;;;;;;5051875;28;20485;-84
2022/01/31 09:35:01;;;;;;;5.73;1.40;;;;;;;;;;5052522;28;20247;-84
2022/01/31 09:37:28;;;;;;;4.00;1.20;;;4.90;99.90;;;;;;5034036;28;20455;-83
2022/01/31 09:40:03;;;;;;;0.93;0.93;;;4.80;99.90;;;;;;5045181;28;20641;-83
2022/01/31 09:42:52;;;;;;;2.45;1.50;;;6.80;99.90;;;;;;5028771;28;20181;-84
2022/01/31 09:45:34;;;;;;;3.90;1.15;;;4.80;99.90;;;;;;5047014;28;20184;-84
2022/01/31 09:50:28;;;;;;;4.03;1.52;;;4.90;99.90;;;;;;5077752;28;20177;-85
2022/01/31 09:52:55;;;;;;;2.80;1.40;;;4.90;99.90;;;;;;5074381;28;20189;-85
2022/01/31 09:55:27;;;;;;;1.98;1.25;;;4.90;99.90;;;;;;5068829;28;20486;-86
2022/01/31 09:57:53;;;;;;;2.65;1.13;;;4.90;99.90;;;;;;5054175;28;20225;-85
2022/01/31 10:00:19;;;;;;;6.30;1.27;;;4.90;99.90;;;;;;5046419;28;20227;-85
2022/01/31 10:03:04;;;;;;;3.23;2.00;;;4.90;99.90;;;;;;5049593;28;20192;-85
2022/01/31 10:05:30;;;;;;;5.78;1.80;;;4.90;99.90;;;;;;5038809;28;20258;-83
2022/01/31 10:08:09;;;;;;;2.70;1.13;;;4.80;99.90;;;;;;5054444;28;20192;-84
2022/01/31 10:10:40;;;;;;;2.15;1.95;;;4.80;99.90;;;;;;5047505;28;20889;-85
2022/01/31 10:16:25;;;;;;;1.75;1.40;;;4.80;99.90;;;;;;5053745;28;20670;-88
2022/01/31 10:19:06;;;;;;;2.80;1.65;;;4.90;99.90;;;;;;5029052;28;20218;-86
2022/01/31 10:21:32;;;;;;;2.15;1.60;;;4.90;99.90;;;;;;5036654;28;20185;-83
2022/01/31 10:23:57;;;;;;;4.10;1.27;;;4.80;99.90;;;;;;5051874;28;20184;-86
2022/01/31 10:26:28;;;;;;;3.23;1.13;;;4.90;99.90;;;;;;5032975;28;20235;-84
2022/01/31 10:29:12;;;;;;;4.18;1.42;;;4.90;99.90;;;;;;5030690;28;20231;-86
2022/01/31 10:31:38;;;;;;;2.35;1.60;;;4.90;99.90;;;;;;5018007;28;20193;-83
2022/01/31 10:34:18;;;;;;;5.43;1.75;;;5.00;99.90;;;;;;5051483;28;20246;-85
2022/01/31 10:36:43;;;;;;;2.55;2.05;;;4.90;99.90;;;;;;5035915;28;20173;-85
2022/01/31 10:39:15;;;;;;;2.23;2.03;;;5.00;99.90;;;;;;5046553;28;20688;-83
2022/01/31 10:53:08;;;;;;;6.60;1.83;;;5.10;99.90;;;;;;5047233;28;20183;-84
2022/01/31 10:55:34;;;;;;;2.80;2.35;;;5.20;99.90;;;;;;5031013;28;20177;-86
2022/01/31 10:58:05;;;;;;;2.90;1.60;;;5.20;99.90;;;;;;5025059;28;20296;-83
2022/01/31 11:00:40;;;;;;;3.95;1.58;;;5.40;99.90;;;;;;5047327;28;20255;-85
2022/01/31 11:03:32;;;;;;;2.67;1.80;;;5.40;99.90;;;;;;5051887;28;20255;-84
2022/01/31 11:06:01;;;;;;;3.50;1.23;;;5.60;99.90;;;;;;5048977;28;20197;-86
2022/01/31 11:08:27;;;;;;;4.00;2.38;;;5.50;99.90;;;;;;5023070;28;20285;-84
2022/01/31 11:11:02;;;;;;;3.10;2.20;;;5.60;99.90;;;;;;5044823;28;20189;-86
2022/01/31 11:13:30;;;;;;;2.35;1.33;;;5.50;99.90;;;;;;5048331;28;20169;-86
2022/01/31 11:15:56;;;;;;;1.80;1.45;;;5.40;99.90;;;;;;5043633;28;20176;-83
2022/01/31 11:18:23;;;;;;;2.83;1.42;;;5.40;99.90;;;;;;5048946;28;20224;-86
2022/01/31 11:20:57;;;;;;;5.03;1.83;;;5.40;99.90;;;;;;5046782;28;20192;-85
2022/01/31 11:23:27;;;;;;;1.35;1.25;;;5.30;99.90;;;;;;5053120;28;20180;-84
2022/01/31 11:25:56;;;;;;;2.53;1.52;;;5.30;99.90;;;;;;5048885;28;20181;-84
2022/01/31 11:28:23;;;;;;;8.88;1.80;;;5.30;99.90;;;;;;5044567;28;20189;-85
2022/01/31 11:30:52;;;;;;;5.18;2.35;;;5.30;99.90;;;;;;5036580;28;20849;-84
2022/01/31 11:33:19;;;;;;;3.55;1.33;;;5.30;99.90;;;;;;5042179;28;20172;-84
2022/01/31 11:35:46;;;;;;;2.88;1.60;;;5.20;99.90;;;;;;5079840;28;20197;-86
2022/01/31 11:38:11;;;;;;;5.80;1.58;;;5.20;99.90;;;;;;5050822;28;20210;-88
2022/01/31 11:40:38;;;;;;;5.67;1.50;;;;;;;;;;5042832;28;20193;-88
2022/01/31 11:43:04;;;;;;;3.60;2.45;;;5.20;99.90;;;;;;5040726;28;20188;-89
2022/01/31 11:45:41;;;;;;;1.10;0.60;;;5.10;99.90;;;;;;5045674;28;20181;-85
2022/01/31 11:48:11;;;;;;;4.30;1.35;;;5.10;99.90;;;;;;5054161;28;20523;-86
2022/01/31 11:50:44;;;;;;;10.10;2.25;;;5.10;99.90;;;;;;5038475;28;20186;-86
2022/01/31 11:53:10;;;;;;;1.45;0.88;;;5.00;99.90;;;;;;5036272;28;20204;-84
2022/01/31 11:55:40;;;;;;;6.63;1.70;;;5.10;99.90;;;;;;5031575;28;20177;-84
2022/01/31 11:58:07;;;;;;;2.35;1.08;;;5.20;99.90;;;;;;5048230;28;20628;-84
2022/01/31 12:00:39;;;;;;;3.22;1.33;;;5.20;99.90;;;;;;5047849;28;20181;-85
2022/01/31 12:03:13;;;;;;;1.48;1.25;;;5.20;99.90;;;;;;5035366;28;20182;-86
2022/01/31 12:05:40;;;;;;;2.40;1.05;;;5.30;99.90;;;;;;5056240;28;20188;-87
2022/01/31 12:08:15;;;;;;;1.35;0.73;;;5.30;99.90;;;;;;5029012;28;20197;-86
2022/01/31 12:10:46;;;;;;;1.00;0.95;;;5.30;99.90;;;;;;5049964;28;20222;-85
2022/01/31 12:13:38;;;;;;;2.78;1.40;;;5.30;99.90;;;;;;5040379;28;20200;-85
2022/01/31 12:16:15;;;;;;;1.98;1.30;;;5.20;99.90;;;;;;5055515;28;20836;-86
2022/01/31 12:24:20;;;;;;;1.35;1.00;;;5.10;99.90;;;;;;5058435;28;20191;-85
2022/01/31 12:26:52;;;;;;;2.35;1.10;;;5.10;99.90;;;;;;5034905;28;21156;-82
2022/01/31 12:29:46;;;;;;;0.95;0.82;;;5.10;99.90;;;;;;5043575;28;20201;-85
2022/01/31 12:32:17;;;;;;;2.50;0.90;;;5.20;99.90;;;;;;5028354;28;20185;-83
2022/01/31 12:35:06;;;;;;;1.45;0.75;;;5.10;99.90;;;;;;5038463;28;20208;-86
2022/01/31 12:37:37;;;;;;;1.80;1.13;;;5.10;99.90;;;;;;5050632;28;20197;-88
2022/01/31 12:40:16;;;;;;;4.50;1.50;;;5.10;99.90;;;;;;5033373;28;20205;-84
2022/01/31 12:43:24;;;;;;;10.77;1.20;;;5.00;99.90;;;;;;5046179;28;20172;-85
2022/01/31 12:45:49;;;;;;;1.08;0.98;;;4.70;99.90;;;;;;5035582;28;20251;-87
2022/01/31 12:48:23;;;;;;;2.93;0.90;;;4.90;99.90;;;;;;5067973;28;20197;-85
2022/01/31 12:50:48;;;;;;;8.02;2.03;;;4.80;99.90;;;;;;5073719;28;20188;-86
2022/01/31 12:53:23;;;;;;;2.30;1.20;;;5.70;99.90;;;;;;5056146;28;20189;-88
2022/01/31 12:56:12;;;;;;;5.30;1.27;;;4.80;99.90;;;;;;5041132;28;20189;-86
2022/01/31 12:58:43;;;;;;;1.55;0.98;;;4.70;99.90;;;;;;5032683;28;20546;-86
2022/01/31 13:01:10;;;;;;;2.47;1.60;;;4.80;99.90;;;;;;5042805;28;20189;-86
2022/01/31 13:03:37;;;;;;;5.68;1.55;;;4.80;99.90;;;;;;5065377;28;20296;-88
2022/01/31 13:06:03;;;;;;;3.00;1.25;;;4.80;99.90;;;;;;5058480;28;20181;-86
2022/01/31 13:08:31;;;;;;;2.90;1.50;;;;;;;;;;5041044;28;20203;-86
2022/01/31 13:10:57;;;;;;;3.95;1.80;;;4.80;99.90;;;;;;5021236;28;20435;-87
2022/01/31 13:13:34;;;;;;;2.60;1.50;;;4.90;99.90;;;;;;5040595;28;20665;-87
2022/01/31 13:16:08;;;;;;;8.80;1.65;;;4.80;99.90;;;;;;5033646;28;20797;-87
2022/01/31 13:18:34;;;;;;;2.40;1.23;;;4.90;99.90;;;;;;5033145;28;20204;-85
2022/01/31 13:21:03;;;;;;;3.90;1.90;;;4.90;99.90;;;;;;5034708;28;20239;-83
2022/01/31 13:23:29;;;;;;;2.03;0.98;;;5.10;99.90;;;;;;5037451;28;20237;-87
2022/01/31 13:26:01;;;;;;;2.85;1.42;;;5.00;99.90;;;;;;5032178;28;20203;-87
2022/01/31 13:28:26;;;;;;;1.77;1.15;;;5.00;99.90;;;;;;5028420;28;20197;-86
2022/01/31 13:30:52;;;;;;;5.90;1.07;;;5.00;99.90;;;;;;5029444;28;22697;-87
2022/01/31 13:33:18;;;;;;;1.90;0.70;;;5.10;99.90;;;;;;5030651;28;20177;-87
2022/01/31 13:35:46;;;;;;;3.38;1.05;;;5.10;99.90;;;;;;5031920;28;20453;-87
2022/01/31 13:38:12;;;;;;;8.30;1.35;;;5.10;99.90;;;;;;5033513;28;20231;-83
2022/01/31 13:40:46;;;;;;;4.10;1.23;;;5.10;99.90;;;;;;5048821;28;20173;-86
2022/01/31 13:43:12;;;;;;;5.13;1.88;;;5.10;99.90;;;;;;5050745;28;20439;-87